LVIRU SAZN-SABE
Flight info
| Callsign | LVIRU |
|---|---|
| Flight time | N/A |
| Altitude | 27000 |
| Route | SAZN 27 DCT OSEKO UZ127 OSA UW73 IRASU UW68 ASADA DCT SABE |
| Aircraft | LJ35/L-S/C |
Departure
| Time | 2026-05-04 23:27 |
|---|---|
| Airport | Presidente Perón International Airport (SAZN) |
Arrival
| Time | N/A |
|---|---|
| Airport | Aeroparque Jorge Newbery (SABE) |
| Time | Latitude | Longitude | Altitude | Speed | Heading |
|---|---|---|---|---|---|
| 2026-05-04 23:08 | -38.95120 | -68.13932 | 898 ft | 0 kts | 270° |
| 2026-05-04 23:25 | -38.95120 | -68.13941 | 870 ft | 2 kts | 275° |
| 2026-05-04 23:25 | -38.95110 | -68.13987 | 898 ft | 8 kts | 289° |
| 2026-05-04 23:25 | -38.95094 | -68.14082 | 898 ft | 14 kts | 278° |
| 2026-05-04 23:26 | -38.95022 | -68.14120 | 898 ft | 12 kts | 3° |
| 2026-05-04 23:26 | -38.94925 | -68.14117 | 900 ft | 15 kts | 355° |
| 2026-05-04 23:26 | -38.94904 | -68.14164 | 900 ft | 0 kts | 269° |
| 2026-05-04 23:26 | -38.94904 | -68.14249 | 899 ft | 39 kts | 269° |
| 2026-05-04 23:27 | -38.94904 | -68.15094 | 896 ft | 149 kts | 270° |
| 2026-05-04 23:27 | -38.94898 | -68.16737 | 1397 ft | 206 kts | 271° |
| 2026-05-04 23:27 | -38.94869 | -68.18634 | 2775 ft | 213 kts | 268° |
| 2026-05-04 23:27 | -38.94883 | -68.20534 | 4342 ft | 215 kts | 269° |
| 2026-05-04 23:28 | -38.94881 | -68.22488 | 5961 ft | 223 kts | 270° |
| 2026-05-04 23:28 | -38.94871 | -68.24501 | 7599 ft | 227 kts | 271° |
| 2026-05-04 23:28 | -38.94861 | -68.26541 | 9320 ft | 228 kts | 271° |
| 2026-05-04 23:28 | -38.94852 | -68.28559 | 10942 ft | 227 kts | 272° |
| 2026-05-04 23:29 | -38.94543 | -68.30526 | 12586 ft | 227 kts | 295° |
| 2026-05-04 23:29 | -38.93442 | -68.31981 | 14206 ft | 235 kts | 323° |
| 2026-05-04 23:29 | -38.91803 | -68.32505 | 15613 ft | 259 kts | 349° |
| 2026-05-04 23:29 | -38.89957 | -68.31932 | 16826 ft | 292 kts | 16° |
| 2026-05-04 23:30 | -38.88281 | -68.30261 | 18024 ft | 319 kts | 37° |
| 2026-05-04 23:30 | -38.87289 | -68.28831 | 18695 ft | 328 kts | 40° |
| 2026-05-04 23:30 | -38.85749 | -68.26635 | 19690 ft | 332 kts | 35° |
| 2026-05-04 23:30 | -38.84001 | -68.24714 | 20682 ft | 331 kts | 25° |
| 2026-05-04 23:31 | -38.81484 | -68.22412 | 22015 ft | 341 kts | 25° |
| 2026-05-04 23:31 | -38.79578 | -68.20512 | 22995 ft | 353 kts | 28° |
| 2026-05-04 23:31 | -38.78291 | -68.19143 | 23615 ft | 358 kts | 28° |
| 2026-05-04 23:31 | -38.76355 | -68.17108 | 24458 ft | 361 kts | 27° |
| 2026-05-04 23:32 | -38.74365 | -68.15107 | 25294 ft | 365 kts | 26° |
| 2026-05-04 23:32 | -38.72346 | -68.13092 | 26116 ft | 370 kts | 27° |
| 2026-05-04 23:32 | -38.70337 | -68.11047 | 26918 ft | 376 kts | 27° |
| 2026-05-04 23:32 | -38.68279 | -68.08943 | 27710 ft | 380 kts | 27° |
| 2026-05-04 23:33 | -38.66198 | -68.06835 | 28487 ft | 384 kts | 27° |
| 2026-05-04 23:33 | -38.64085 | -68.04703 | 29248 ft | 388 kts | 27° |
| 2026-05-04 23:33 | -38.61947 | -68.02541 | 29979 ft | 393 kts | 27° |
| 2026-05-04 23:33 | -38.59794 | -68.00360 | 30597 ft | 397 kts | 27° |
| 2026-05-04 23:34 | -38.57613 | -67.98156 | 31222 ft | 400 kts | 27° |
| 2026-05-04 23:34 | -38.55421 | -67.95945 | 31821 ft | 403 kts | 27° |
| 2026-05-04 23:34 | -38.53213 | -67.93719 | 32408 ft | 406 kts | 27° |
| 2026-05-04 23:34 | -38.50984 | -67.91470 | 32869 ft | 414 kts | 28° |
| 2026-05-04 23:35 | -38.48893 | -67.88802 | 32876 ft | 447 kts | 43° |
| 2026-05-04 23:35 | -38.47079 | -67.85437 | 32888 ft | 471 kts | 51° |
| 2026-05-04 23:35 | -38.45306 | -67.81837 | 32888 ft | 487 kts | 51° |
| 2026-05-04 23:35 | -38.43473 | -67.78130 | 32892 ft | 500 kts | 51° |
| 2026-05-04 23:36 | -38.41570 | -67.74344 | 32891 ft | 512 kts | 51° |
| 2026-05-04 23:36 | -38.39626 | -67.70487 | 32889 ft | 520 kts | 51° |
| 2026-05-04 23:36 | -38.35715 | -67.62654 | 32888 ft | 525 kts | 51° |
| 2026-05-04 23:37 | -38.31759 | -67.54809 | 32885 ft | 526 kts | 51° |
| 2026-05-04 23:37 | -38.27834 | -67.47011 | 32886 ft | 526 kts | 51° |
| 2026-05-04 23:38 | -38.23869 | -67.39174 | 32885 ft | 525 kts | 51° |
| 2026-05-04 23:38 | -38.19909 | -67.31351 | 32885 ft | 525 kts | 51° |
| 2026-05-04 23:39 | -38.15973 | -67.23602 | 32883 ft | 525 kts | 51° |
| 2026-05-04 23:39 | -38.12002 | -67.15800 | 32882 ft | 526 kts | 51° |
| 2026-05-04 23:40 | -38.08016 | -67.07988 | 32879 ft | 526 kts | 51° |
| 2026-05-04 23:40 | -38.04117 | -67.00364 | 32875 ft | 527 kts | 51° |
| 2026-05-04 23:41 | -38.00069 | -66.92468 | 32872 ft | 527 kts | 51° |
| 2026-05-04 23:41 | -37.96075 | -66.84691 | 32874 ft | 513 kts | 51° |
| 2026-05-04 23:42 | -37.94183 | -66.80992 | 32814 ft | 485 kts | 51° |
| 2026-05-04 23:42 | -37.92378 | -66.77489 | 32757 ft | 473 kts | 50° |
| 2026-05-04 23:42 | -37.90561 | -66.74013 | 33095 ft | 479 kts | 51° |
| 2026-05-04 23:42 | -37.88742 | -66.70496 | 33601 ft | 482 kts | 51° |
| 2026-05-04 23:43 | -37.86902 | -66.66912 | 34019 ft | 485 kts | 51° |
| 2026-05-04 23:43 | -37.85053 | -66.63332 | 34393 ft | 487 kts | 51° |
| 2026-05-04 23:43 | -37.83184 | -66.59739 | 34739 ft | 490 kts | 51° |
| 2026-05-04 23:43 | -37.81306 | -66.56123 | 35076 ft | 493 kts | 51° |
| 2026-05-04 23:44 | -37.79425 | -66.52493 | 35406 ft | 496 kts | 51° |
| 2026-05-04 23:44 | -37.77522 | -66.48827 | 35716 ft | 498 kts | 51° |
| 2026-05-04 23:44 | -37.75608 | -66.45153 | 36016 ft | 501 kts | 51° |
| 2026-05-04 23:44 | -37.73685 | -66.41466 | 36301 ft | 503 kts | 51° |
| 2026-05-04 23:45 | -37.71752 | -66.37760 | 36574 ft | 506 kts | 51° |
| 2026-05-04 23:45 | -37.69814 | -66.34043 | 36840 ft | 508 kts | 51° |
| 2026-05-04 23:45 | -37.67892 | -66.30367 | 37077 ft | 507 kts | 51° |
| 2026-05-04 23:45 | -37.66009 | -66.26750 | 37069 ft | 479 kts | 51° |
| 2026-05-04 23:46 | -37.64224 | -66.23329 | 37036 ft | 458 kts | 50° |
| 2026-05-04 23:46 | -37.62434 | -66.19952 | 37216 ft | 464 kts | 50° |
| 2026-05-04 23:46 | -37.60642 | -66.16557 | 37629 ft | 466 kts | 51° |
| 2026-05-04 23:46 | -37.58850 | -66.13128 | 37966 ft | 469 kts | 51° |
| 2026-05-04 23:47 | -37.57050 | -66.09694 | 38312 ft | 471 kts | 51° |
| 2026-05-04 23:47 | -37.55227 | -66.06239 | 38611 ft | 473 kts | 50° |
| 2026-05-04 23:47 | -37.53396 | -66.02775 | 38885 ft | 475 kts | 50° |
| 2026-05-04 23:47 | -37.51587 | -65.99342 | 39162 ft | 476 kts | 50° |
| 2026-05-04 23:48 | -37.49746 | -65.95853 | 39427 ft | 478 kts | 50° |
| 2026-05-04 23:48 | -37.47898 | -65.92359 | 39679 ft | 479 kts | 50° |
| 2026-05-04 23:48 | -37.46048 | -65.88866 | 39935 ft | 480 kts | 50° |
| 2026-05-04 23:48 | -37.44188 | -65.85357 | 40175 ft | 482 kts | 50° |
| 2026-05-04 23:49 | -37.42323 | -65.81838 | 40407 ft | 483 kts | 50° |
| 2026-05-04 23:49 | -37.40446 | -65.78304 | 40631 ft | 485 kts | 50° |
| 2026-05-04 23:49 | -37.38591 | -65.74816 | 40853 ft | 486 kts | 50° |
| 2026-05-04 23:49 | -37.36690 | -65.71248 | 40864 ft | 493 kts | 50° |
| 2026-05-04 23:50 | -37.32829 | -65.64002 | 40877 ft | 504 kts | 50° |
| 2026-05-04 23:50 | -37.28908 | -65.56655 | 40881 ft | 504 kts | 50° |
| 2026-05-04 23:51 | -37.25005 | -65.49368 | 40877 ft | 501 kts | 50° |
| 2026-05-04 23:51 | -37.21116 | -65.42118 | 40873 ft | 500 kts | 50° |
| 2026-05-04 23:52 | -37.17250 | -65.34928 | 40871 ft | 499 kts | 50° |
| 2026-05-04 23:52 | -37.13368 | -65.27723 | 40867 ft | 498 kts | 50° |
| 2026-05-04 23:53 | -37.09485 | -65.20532 | 40863 ft | 497 kts | 50° |
| 2026-05-04 23:53 | -37.05600 | -65.13354 | 40865 ft | 497 kts | 50° |
| 2026-05-04 23:54 | -37.01742 | -65.06240 | 40870 ft | 496 kts | 50° |
| 2026-05-04 23:54 | -36.97860 | -64.99096 | 40866 ft | 496 kts | 50° |
| 2026-05-04 23:55 | -36.93985 | -64.91981 | 40864 ft | 495 kts | 50° |
| 2026-05-04 23:56 | -36.88177 | -64.81345 | 40864 ft | 494 kts | 50° |
| 2026-05-04 23:56 | -36.84290 | -64.74244 | 40862 ft | 494 kts | 50° |
| 2026-05-04 23:57 | -36.80404 | -64.67161 | 40867 ft | 494 kts | 50° |
| 2026-05-04 23:57 | -36.76535 | -64.60123 | 40863 ft | 494 kts | 50° |
| 2026-05-04 23:58 | -36.72646 | -64.53065 | 40858 ft | 494 kts | 50° |
| 2026-05-04 23:58 | -36.68752 | -64.46010 | 40849 ft | 493 kts | 50° |
| 2026-05-04 23:59 | -36.64853 | -64.38964 | 40838 ft | 494 kts | 50° |
| 2026-05-04 23:59 | -36.60973 | -64.31964 | 40841 ft | 494 kts | 50° |
| 2026-05-05 00:00 | -36.57215 | -64.24766 | 40847 ft | 498 kts | 56° |
| 2026-05-05 00:00 | -36.53811 | -64.17266 | 40843 ft | 498 kts | 55° |
| 2026-05-05 00:01 | -36.50375 | -64.09782 | 40848 ft | 498 kts | 56° |
| 2026-05-05 00:01 | -36.46970 | -64.02338 | 40850 ft | 498 kts | 55° |
| 2026-05-05 00:02 | -36.43531 | -63.94861 | 40858 ft | 498 kts | 55° |
| 2026-05-05 00:02 | -36.40088 | -63.87380 | 40865 ft | 498 kts | 55° |
| 2026-05-05 00:03 | -36.36643 | -63.79919 | 40865 ft | 498 kts | 55° |
| 2026-05-05 00:03 | -36.33196 | -63.72463 | 40865 ft | 498 kts | 55° |
| 2026-05-05 00:04 | -36.29738 | -63.65005 | 40865 ft | 498 kts | 55° |
| 2026-05-05 00:04 | -36.26299 | -63.57602 | 40867 ft | 498 kts | 55° |
| 2026-05-05 00:05 | -36.22826 | -63.50146 | 40868 ft | 499 kts | 55° |
| 2026-05-05 00:05 | -36.19351 | -63.42699 | 40869 ft | 499 kts | 55° |
| 2026-05-05 00:06 | -36.15872 | -63.35260 | 40869 ft | 499 kts | 55° |
| 2026-05-05 00:06 | -36.12386 | -63.27822 | 40865 ft | 499 kts | 55° |
| 2026-05-05 00:07 | -36.08920 | -63.20444 | 40865 ft | 499 kts | 55° |
| 2026-05-05 00:07 | -36.05425 | -63.13021 | 40867 ft | 500 kts | 55° |
| 2026-05-05 00:08 | -36.01913 | -63.05579 | 40867 ft | 500 kts | 55° |
| 2026-05-05 00:08 | -35.98402 | -62.98153 | 40870 ft | 500 kts | 55° |
| 2026-05-05 00:09 | -35.94906 | -62.90777 | 40873 ft | 500 kts | 54° |
| 2026-05-05 00:09 | -35.91385 | -62.83363 | 40873 ft | 500 kts | 54° |
| 2026-05-05 00:10 | -35.87876 | -62.75991 | 40869 ft | 500 kts | 54° |
| 2026-05-05 00:10 | -35.84345 | -62.68589 | 40867 ft | 501 kts | 54° |
| 2026-05-05 00:11 | -35.80808 | -62.61190 | 40867 ft | 501 kts | 54° |
| 2026-05-05 00:11 | -35.77266 | -62.53797 | 40869 ft | 501 kts | 54° |
| 2026-05-05 00:12 | -35.73714 | -62.46399 | 40874 ft | 501 kts | 54° |
| 2026-05-05 00:12 | -35.70160 | -62.39014 | 40874 ft | 501 kts | 54° |
| 2026-05-05 00:13 | -35.66604 | -62.31638 | 40872 ft | 501 kts | 54° |
| 2026-05-05 00:13 | -35.63062 | -62.24309 | 40871 ft | 502 kts | 54° |
| 2026-05-05 00:14 | -35.59491 | -62.16936 | 40876 ft | 502 kts | 54° |
| 2026-05-05 00:14 | -35.55911 | -62.09559 | 40883 ft | 502 kts | 54° |
| 2026-05-05 00:15 | -35.52327 | -62.02190 | 40884 ft | 502 kts | 54° |
| 2026-05-05 00:15 | -35.48734 | -61.94820 | 40879 ft | 502 kts | 54° |
| 2026-05-05 00:16 | -35.45158 | -61.87497 | 40878 ft | 503 kts | 54° |
| 2026-05-05 00:16 | -35.41558 | -61.80145 | 40880 ft | 503 kts | 54° |
| 2026-05-05 00:17 | -35.38908 | -61.73771 | 40886 ft | 509 kts | 67° |
| 2026-05-05 00:17 | -35.37710 | -61.68132 | 40883 ft | 512 kts | 78° |
| 2026-05-05 00:17 | -35.37257 | -61.65301 | 40886 ft | 512 kts | 78° |
| 2026-05-05 00:18 | -35.35868 | -61.56734 | 40889 ft | 512 kts | 77° |
| 2026-05-05 00:18 | -35.35174 | -61.52496 | 40438 ft | 508 kts | 77° |
| 2026-05-05 00:18 | -35.34483 | -61.48254 | 39927 ft | 504 kts | 77° |
| 2026-05-05 00:18 | -35.33799 | -61.44061 | 39458 ft | 499 kts | 77° |
| 2026-05-05 00:19 | -35.33117 | -61.39907 | 39007 ft | 494 kts | 77° |
| 2026-05-05 00:19 | -35.32448 | -61.35847 | 38565 ft | 490 kts | 77° |
| 2026-05-05 00:19 | -35.31778 | -61.31779 | 38058 ft | 485 kts | 77° |
| 2026-05-05 00:19 | -35.31112 | -61.27744 | 37538 ft | 481 kts | 77° |
| 2026-05-05 00:20 | -35.30448 | -61.23732 | 37034 ft | 477 kts | 77° |
| 2026-05-05 00:20 | -35.29788 | -61.19756 | 36484 ft | 473 kts | 77° |
| 2026-05-05 00:20 | -35.29134 | -61.15823 | 35959 ft | 469 kts | 77° |
| 2026-05-05 00:20 | -35.28484 | -61.11919 | 35462 ft | 465 kts | 77° |
| 2026-05-05 00:21 | -35.27838 | -61.08050 | 34976 ft | 462 kts | 77° |
| 2026-05-05 00:21 | -35.27204 | -61.04259 | 34509 ft | 458 kts | 77° |
| 2026-05-05 00:21 | -35.26566 | -61.00453 | 34056 ft | 455 kts | 77° |
| 2026-05-05 00:21 | -35.25930 | -60.96668 | 33565 ft | 451 kts | 77° |
| 2026-05-05 00:22 | -35.25299 | -60.92917 | 33083 ft | 448 kts | 77° |
| 2026-05-05 00:22 | -35.24672 | -60.89197 | 32615 ft | 444 kts | 76° |
| 2026-05-05 00:22 | -35.24047 | -60.85502 | 32153 ft | 441 kts | 76° |
| 2026-05-05 00:22 | -35.23427 | -60.81840 | 31715 ft | 438 kts | 76° |
| 2026-05-05 00:23 | -35.22810 | -60.78198 | 31289 ft | 435 kts | 76° |
| 2026-05-05 00:23 | -35.22196 | -60.74585 | 30866 ft | 432 kts | 76° |
| 2026-05-05 00:23 | -35.21585 | -60.70998 | 30384 ft | 428 kts | 76° |
| 2026-05-05 00:23 | -35.20979 | -60.67447 | 29743 ft | 424 kts | 76° |
| 2026-05-05 00:24 | -35.20386 | -60.63973 | 28973 ft | 420 kts | 76° |
| 2026-05-05 00:24 | -35.19791 | -60.60497 | 28251 ft | 416 kts | 76° |
| 2026-05-05 00:24 | -35.19200 | -60.57052 | 27549 ft | 411 kts | 76° |
| 2026-05-05 00:24 | -35.18616 | -60.53654 | 26876 ft | 407 kts | 76° |
| 2026-05-05 00:25 | -35.18036 | -60.50282 | 26214 ft | 403 kts | 76° |
| 2026-05-05 00:25 | -35.17460 | -60.46944 | 25566 ft | 399 kts | 76° |
| 2026-05-05 00:25 | -35.16888 | -60.43631 | 24937 ft | 396 kts | 76° |
| 2026-05-05 00:25 | -35.16320 | -60.40351 | 24328 ft | 392 kts | 76° |
| 2026-05-05 00:26 | -35.15758 | -60.37104 | 23729 ft | 389 kts | 76° |
| 2026-05-05 00:26 | -35.15198 | -60.33881 | 23092 ft | 385 kts | 76° |
| 2026-05-05 00:26 | -35.14643 | -60.30688 | 22485 ft | 382 kts | 76° |
| 2026-05-05 00:26 | -35.14093 | -60.27532 | 21942 ft | 378 kts | 76° |
| 2026-05-05 00:27 | -35.13555 | -60.24448 | 21411 ft | 374 kts | 76° |
| 2026-05-05 00:27 | -35.13015 | -60.21355 | 20884 ft | 371 kts | 76° |
| 2026-05-05 00:27 | -35.12477 | -60.18280 | 20366 ft | 367 kts | 77° |
| 2026-05-05 00:27 | -35.11944 | -60.15239 | 19869 ft | 364 kts | 77° |
| 2026-05-05 00:28 | -35.11417 | -60.12237 | 19389 ft | 360 kts | 77° |
| 2026-05-05 00:28 | -35.10892 | -60.09252 | 18912 ft | 357 kts | 77° |
| 2026-05-05 00:28 | -35.10371 | -60.06295 | 18453 ft | 354 kts | 77° |
| 2026-05-05 00:28 | -35.09854 | -60.03368 | 17871 ft | 350 kts | 77° |
| 2026-05-05 00:29 | -35.09303 | -60.00524 | 17198 ft | 347 kts | 72° |
| 2026-05-05 00:29 | -35.08478 | -59.97776 | 16559 ft | 342 kts | 66° |
| 2026-05-05 00:29 | -35.07552 | -59.95111 | 15935 ft | 339 kts | 66° |
| 2026-05-05 00:29 | -35.06722 | -59.92417 | 15316 ft | 337 kts | 70° |
| 2026-05-05 00:30 | -35.05983 | -59.89718 | 14717 ft | 334 kts | 71° |
| 2026-05-05 00:30 | -35.05220 | -59.87053 | 14142 ft | 331 kts | 69° |
| 2026-05-05 00:30 | -35.04423 | -59.84415 | 13469 ft | 331 kts | 69° |
| 2026-05-05 00:30 | -35.03643 | -59.81812 | 12745 ft | 331 kts | 69° |
| 2026-05-05 00:31 | -35.02860 | -59.79138 | 12056 ft | 329 kts | 70° |
| 2026-05-05 00:31 | -35.02100 | -59.76554 | 11456 ft | 325 kts | 69° |
| 2026-05-05 00:31 | -35.01337 | -59.73980 | 10851 ft | 321 kts | 69° |
| 2026-05-05 00:31 | -35.00580 | -59.71430 | 10264 ft | 317 kts | 69° |
| 2026-05-05 00:32 | -34.99834 | -59.68914 | 9677 ft | 313 kts | 69° |
| 2026-05-05 00:32 | -34.99099 | -59.66437 | 9121 ft | 307 kts | 69° |
| 2026-05-05 00:32 | -34.98389 | -59.64043 | 8598 ft | 300 kts | 69° |
| 2026-05-05 00:32 | -34.97686 | -59.61677 | 8062 ft | 293 kts | 69° |
| 2026-05-05 00:33 | -34.96998 | -59.59366 | 7555 ft | 286 kts | 69° |
| 2026-05-05 00:33 | -34.96324 | -59.57101 | 7044 ft | 280 kts | 69° |
| 2026-05-05 00:33 | -34.95674 | -59.54921 | 6555 ft | 274 kts | 68° |
| 2026-05-05 00:33 | -34.95030 | -59.52762 | 6041 ft | 268 kts | 68° |
| 2026-05-05 00:34 | -34.94397 | -59.50639 | 5450 ft | 265 kts | 68° |
| 2026-05-05 00:34 | -34.93755 | -59.48494 | 5158 ft | 276 kts | 68° |
| 2026-05-05 00:34 | -34.93037 | -59.46106 | 5168 ft | 325 kts | 68° |
| 2026-05-05 00:34 | -34.92232 | -59.43411 | 5200 ft | 342 kts | 69° |
| 2026-05-05 00:35 | -34.91397 | -59.40608 | 5228 ft | 367 kts | 69° |
| 2026-05-05 00:35 | -34.90508 | -59.37644 | 5260 ft | 369 kts | 69° |
| 2026-05-05 00:35 | -34.89641 | -59.34747 | 5277 ft | 359 kts | 68° |
| 2026-05-05 00:35 | -34.88790 | -59.31918 | 5296 ft | 352 kts | 68° |
| 2026-05-05 00:36 | -34.87946 | -59.29114 | 5299 ft | 366 kts | 68° |
| 2026-05-05 00:36 | -34.87040 | -59.26112 | 5310 ft | 386 kts | 69° |
| 2026-05-05 00:36 | -34.86131 | -59.23080 | 5322 ft | 376 kts | 69° |
| 2026-05-05 00:36 | -34.85242 | -59.20128 | 5329 ft | 368 kts | 68° |
| 2026-05-05 00:37 | -34.84362 | -59.17216 | 5331 ft | 367 kts | 68° |
| 2026-05-05 00:37 | -34.83447 | -59.14199 | 5333 ft | 389 kts | 68° |
| 2026-05-05 00:37 | -34.82524 | -59.11139 | 5339 ft | 380 kts | 68° |
| 2026-05-05 00:37 | -34.81619 | -59.08144 | 5342 ft | 374 kts | 68° |
| 2026-05-05 00:38 | -34.80724 | -59.05196 | 5343 ft | 362 kts | 68° |
| 2026-05-05 00:38 | -34.79900 | -59.02471 | 4972 ft | 327 kts | 68° |
| 2026-05-05 00:38 | -34.79143 | -58.99975 | 4438 ft | 304 kts | 68° |
| 2026-05-05 00:38 | -34.78410 | -58.97573 | 3508 ft | 301 kts | 68° |
| 2026-05-05 00:39 | -34.77694 | -58.95222 | 2936 ft | 286 kts | 68° |
| 2026-05-05 00:39 | -34.77046 | -58.93081 | 2919 ft | 255 kts | 68° |
| 2026-05-05 00:39 | -34.76435 | -58.91009 | 2925 ft | 281 kts | 72° |
| 2026-05-05 00:39 | -34.76256 | -58.88504 | 2928 ft | 313 kts | 93° |
| 2026-05-05 00:40 | -34.76636 | -58.85799 | 2941 ft | 335 kts | 100° |
| 2026-05-05 00:40 | -34.77124 | -58.82947 | 2953 ft | 350 kts | 101° |
| 2026-05-05 00:40 | -34.77611 | -58.79989 | 2953 ft | 362 kts | 100° |
| 2026-05-05 00:40 | -34.78080 | -58.76996 | 2950 ft | 362 kts | 100° |
| 2026-05-05 00:41 | -34.78542 | -58.74091 | 2949 ft | 338 kts | 100° |
| 2026-05-05 00:41 | -34.79035 | -58.71377 | 2739 ft | 317 kts | 102° |
| 2026-05-05 00:41 | -34.79503 | -58.68856 | 2298 ft | 293 kts | 101° |
| 2026-05-05 00:41 | -34.79903 | -58.66507 | 1891 ft | 273 kts | 99° |
| 2026-05-05 00:42 | -34.80299 | -58.64316 | 1537 ft | 257 kts | 101° |
| 2026-05-05 00:42 | -34.80673 | -58.62247 | 1198 ft | 244 kts | 99° |
| 2026-05-05 00:42 | -34.81008 | -58.60321 | 894 ft | 219 kts | 101° |
| 2026-05-05 00:42 | -34.81320 | -58.58649 | 625 ft | 184 kts | 100° |
| 2026-05-05 00:43 | -34.81561 | -58.57253 | 410 ft | 161 kts | 100° |
| 2026-05-05 00:43 | -34.81797 | -58.55924 | 214 ft | 158 kts | 100° |
| 2026-05-05 00:43 | -34.82023 | -58.54688 | 67 ft | 137 kts | 102° |
| 2026-05-05 00:43 | -34.82176 | -58.53760 | 67 ft | 93 kts | 101° |
| 2026-05-05 00:44 | -34.82243 | -58.53389 | 65 ft | 8 kts | 96° |
| 2026-05-05 00:44 | -34.82243 | -58.53383 | 66 ft | 2 kts | 82° |
| 2026-05-05 00:44 | -34.82203 | -58.53433 | 68 ft | 17 kts | 309° |
| 2026-05-05 00:44 | -34.82065 | -58.53538 | 67 ft | 26 kts | 334° |
| 2026-05-05 00:45 | -34.81997 | -58.53577 | 67 ft | 12 kts | 335° |
| 2026-05-05 00:45 | -34.81928 | -58.53612 | 67 ft | 1 kts | 339° |
| 2026-05-05 00:45 | -34.81911 | -58.53619 | 63 ft | 0 kts | 339° |
| 2026-05-05 00:45 | -34.81906 | -58.53622 | 67 ft | 4 kts | 336° |
| 2026-05-05 00:46 | -34.81886 | -58.53633 | 67 ft | 0 kts | 336° |
| 2026-05-05 00:46 | -34.81866 | -58.53589 | 67 ft | 11 kts | 57° |
| 2026-05-05 00:46 | -34.81805 | -58.53509 | 67 ft | 15 kts | 43° |
| 2026-05-05 00:46 | -34.81717 | -58.53405 | 63 ft | 20 kts | 45° |
| 2026-05-05 00:47 | -34.81606 | -58.53271 | 65 ft | 24 kts | 44° |
| 2026-05-05 00:47 | -34.81442 | -58.53193 | 66 ft | 33 kts | 347° |
| 2026-05-05 00:47 | -34.81141 | -58.53288 | 68 ft | 56 kts | 345° |
| 2026-05-05 00:47 | -34.80807 | -58.53400 | 66 ft | 32 kts | 345° |
| 2026-05-05 00:48 | -34.80815 | -58.53425 | 66 ft | 12 kts | 168° |
| 2026-05-05 00:48 | -34.80879 | -58.53478 | 66 ft | 18 kts | 259° |
| 2026-05-05 00:48 | -34.80863 | -58.53628 | 62 ft | 23 kts | 323° |
| 2026-05-05 00:48 | -34.80654 | -58.53707 | 65 ft | 41 kts | 343° |
| 2026-05-05 00:49 | -34.80352 | -58.53662 | 65 ft | 48 kts | 38° |
| 2026-05-05 00:49 | -34.80108 | -58.53368 | 61 ft | 51 kts | 44° |
| 2026-05-05 00:49 | -34.79887 | -58.53098 | 63 ft | 33 kts | 45° |
| 2026-05-05 00:49 | -34.79732 | -58.52910 | 61 ft | 21 kts | 49° |
| 2026-05-05 00:50 | -34.79771 | -58.52796 | 59 ft | 15 kts | 134° |
| 2026-05-05 00:50 | -34.79779 | -58.52786 | 66 ft | 0 kts | 134° |
| 2026-05-05 00:50 | -34.79818 | -58.52783 | 66 ft | 13 kts | 183° |
| 2026-05-05 00:50 | -34.79838 | -58.52784 | 63 ft | 0 kts | 183° |